Time;durP1;ratioP1;P1;durP2;ratioP2;P2;SDS_P1;SDS_P2;PMS_P1;PMS_P2;Temp;Humidity;BMP_temperature;BMP_pressure;BME280_temperature;BME280_humidity;BME280_pressure;Samples;Min_cycle;Max_cycle;Signal;HPM_P1;HPM_P2
2023/04/28 00:01:15;;;;;;;;;7.00;7.00;;;;;16.91;84.13;100869.13;5096609;27;47047;-44
2023/04/28 00:03:40;;;;;;;;;4.67;4.67;;;;;16.92;84.64;100865.41;5096028;27;45329;-42
2023/04/28 00:06:06;;;;;;;;;7.67;5.00;;;;;16.95;84.55;100870.44;5096596;27;45312;-42
2023/04/28 00:08:32;;;;;;;;;4.33;4.33;;;;;16.98;84.59;100883.50;5096824;27;45341;-44
2023/04/28 00:10:57;;;;;;;;;4.33;4.00;;;;;17.00;84.41;100881.44;5096352;27;45499;-44
2023/04/28 00:13:23;;;;;;;;;6.00;6.00;;;;;16.91;84.45;100867.28;5096410;27;45782;-43
2023/04/28 00:15:49;;;;;;;;;5.00;5.00;;;;;17.04;84.34;100877.38;5097651;27;45253;-44
2023/04/28 00:18:14;;;;;;;;;6.33;4.67;;;;;17.05;84.39;100875.50;5099968;27;45160;-43
2023/04/28 00:20:40;;;;;;;;;3.00;3.00;;;;;17.07;84.16;100873.50;5099490;27;46285;-44
2023/04/28 00:23:05;;;;;;;;;4.67;4.33;;;;;17.06;82.77;100882.56;5099572;27;45444;-44
2023/04/28 00:25:30;;;;;;;;;6.00;6.00;;;;;17.06;84.76;100887.94;5099954;27;45555;-42
2023/04/28 00:27:56;;;;;;;;;5.33;3.67;;;;;17.07;84.72;100889.63;5099909;27;45615;-44
2023/04/28 00:30:21;;;;;;;;;6.00;4.00;;;;;17.04;85.30;100882.75;5099604;27;45990;-43
2023/04/28 00:32:47;;;;;;;;;4.00;4.00;;;;;17.03;85.99;100874.88;5099460;27;45322;-51
2023/04/28 00:35:12;;;;;;;;;7.00;5.33;;;;;17.01;86.12;100874.22;5099877;27;45388;-47
2023/04/28 00:37:38;;;;;;;;;8.33;5.33;;;;;17.03;84.39;100877.56;5100203;27;45427;-43
2023/04/28 00:40:04;;;;;;;;;5.33;5.33;;;;;17.02;85.83;100881.25;5099538;27;45436;-44
2023/04/28 00:42:30;;;;;;;;;4.33;4.00;;;;;17.04;86.07;100881.91;5099691;27;45436;-43
2023/04/28 00:44:55;;;;;;;;;5.67;5.67;;;;;17.02;86.15;100876.72;5099209;27;45824;-42
2023/04/28 00:47:21;;;;;;;;;6.00;3.33;;;;;16.99;86.55;100874.41;5099833;27;45252;-42
2023/04/28 00:49:48;;;;;;;;;5.00;5.00;;;;;17.01;85.68;100872.34;5099720;27;45940;-43
2023/04/28 00:52:14;;;;;;;;;5.00;5.00;;;;;16.99;86.78;100865.53;5099461;27;45447;-43
2023/04/28 00:54:40;;;;;;;;;5.67;4.67;;;;;16.97;86.30;100865.69;5099415;27;45451;-42
2023/04/28 00:57:07;;;;;;;;;4.67;4.00;;;;;16.94;86.75;100858.03;5099902;27;45488;-44
2023/04/28 00:59:32;;;;;;;;;6.67;5.00;;;;;16.98;86.51;100872.75;5098981;27;47204;-43
2023/04/28 01:01:59;;;;;;;;;2.33;2.33;;;;;16.87;86.88;100865.16;5099683;27;45363;-45
2023/04/28 01:04:27;;;;;;;;;4.00;4.00;;;;;16.93;87.08;100865.22;5098859;27;45409;-43
2023/04/28 01:06:54;;;;;;;;;4.00;4.00;;;;;17.00;87.31;100878.75;5098686;27;45582;-44
2023/04/28 01:09:20;;;;;;;;;6.00;3.67;;;;;16.98;85.08;100867.38;5099010;27;46104;-43
2023/04/28 01:11:45;;;;;;;;;6.00;4.67;;;;;16.94;85.54;100874.13;5099007;27;45311;-43
2023/04/28 01:14:11;;;;;;;;;9.00;5.00;;;;;16.93;87.88;100875.13;5099141;27;45540;-43
2023/04/28 01:16:37;;;;;;;;;4.00;4.00;;;;;16.92;87.35;100873.47;5099207;27;45577;-42
2023/04/28 01:19:07;;;;;;;;;3.00;3.00;;;;;16.89;86.82;100866.59;5098724;27;46138;-42
2023/04/28 01:21:33;;;;;;;;;2.33;2.33;;;;;16.88;87.55;100872.19;5098901;27;45333;-43
2023/04/28 01:24:00;;;;;;;;;4.00;4.00;;;;;16.87;92.60;100874.03;5098869;27;45437;-43
2023/04/28 01:26:25;;;;;;;;;5.00;3.33;;;;;16.86;93.35;100868.84;5080409;27;45443;-42
2023/04/28 01:28:51;;;;;;;;;5.33;3.33;;;;;16.84;93.88;100863.66;5098475;27;46132;-43
2023/04/28 01:31:17;;;;;;;;;2.00;2.00;;;;;16.85;93.89;100870.69;5098715;27;45460;-43
2023/04/28 01:33:42;;;;;;;;;3.33;3.00;;;;;16.86;90.53;100874.22;5098898;27;45283;-43
2023/04/28 01:36:07;;;;;;;;;4.33;2.00;;;;;16.87;88.73;100865.16;5080820;27;45477;-42
2023/04/28 01:38:33;;;;;;;;;4.00;4.00;;;;;16.85;89.57;100867.16;5098680;27;46003;-42
2023/04/28 01:40:59;;;;;;;;;4.67;3.67;;;;;16.86;89.79;100872.38;5098745;27;45306;-43
2023/04/28 01:43:24;;;;;;;;;6.67;4.33;;;;;16.86;89.40;100877.75;5098257;27;45434;-43
2023/04/28 01:45:50;;;;;;;;;7.00;4.00;;;;;16.89;90.03;100879.22;5098570;27;45407;-44
2023/04/28 01:48:15;;;;;;;;;3.67;3.67;;;;;16.89;90.03;100871.16;5098027;27;45355;-43
2023/04/28 01:50:41;;;;;;;;;4.00;4.00;;;;;16.83;90.19;100856.63;5098606;27;45350;-42
2023/04/28 01:53:06;;;;;;;;;2.00;2.00;;;;;16.93;89.73;100872.44;5098704;27;45635;-43
2023/04/28 01:55:31;;;;;;;;;5.00;4.00;;;;;16.83;89.06;100856.63;5098827;27;45299;-43
2023/04/28 01:57:57;;;;;;;;;4.33;4.33;;;;;16.87;89.76;100870.50;5098519;27;46051;-44
2023/04/28 02:00:22;;;;;;;;;3.00;3.00;;;;;16.79;89.84;100868.75;5098238;27;45350;-44
2023/04/28 02:02:48;;;;;;;;;4.00;3.00;;;;;16.83;87.66;100870.03;5098454;27;45346;-44
2023/04/28 02:05:13;;;;;;;;;4.00;4.00;;;;;16.82;89.38;100864.88;5098794;27;45292;-44
2023/04/28 02:07:39;;;;;;;;;3.67;3.67;;;;;16.79;89.01;100866.06;5098289;27;45541;-42
2023/04/28 02:10:05;;;;;;;;;3.67;3.67;;;;;16.79;89.67;100867.91;5098484;27;45312;-42
2023/04/28 02:12:30;;;;;;;;;2.00;2.00;;;;;16.81;89.66;100873.94;5098314;27;45314;-43
2023/04/28 02:14:56;;;;;;;;;4.33;3.00;;;;;16.81;90.01;100872.09;5098216;27;45223;-43
2023/04/28 02:17:21;;;;;;;;;3.00;3.00;;;;;16.78;90.05;100871.63;5098346;27;47157;-42
2023/04/28 02:19:46;;;;;;;;;3.00;3.00;;;;;16.83;89.63;100869.22;5113851;27;45438;-43
2023/04/28 02:22:12;;;;;;;;;3.00;3.00;;;;;16.84;87.46;100868.19;5098320;27;45358;-42
2023/04/28 02:24:37;;;;;;;;;4.00;4.00;;;;;16.80;89.38;100864.19;5098303;27;46403;-43
2023/04/28 02:27:04;;;;;;;;;5.00;2.33;;;;;16.79;90.42;100871.44;5096666;27;45758;-43
2023/04/28 02:29:30;;;;;;;;;3.33;3.33;;;;;16.78;88.79;100863.56;5097743;27;45366;-43
2023/04/28 02:31:56;;;;;;;;;3.00;3.00;;;;;16.78;90.21;100871.63;5097742;27;45526;-42
2023/04/28 02:34:21;;;;;;;;;3.67;3.33;;;;;16.77;88.27;100876.16;5098326;27;45736;-42
2023/04/28 02:36:47;;;;;;;;;4.00;4.00;;;;;16.76;90.58;100879.03;5097624;27;45338;-43
2023/04/28 02:39:12;;;;;;;;;5.33;3.33;;;;;16.72;90.08;100875.84;5096747;27;45475;-44
2023/04/28 02:41:37;;;;;;;;;2.67;2.33;;;;;16.71;90.64;100876.84;5097872;27;45382;-43
2023/04/28 02:44:03;;;;;;;;;4.00;2.25;;;;;16.74;90.16;100878.38;5097425;27;45318;-43
2023/04/28 02:46:28;;;;;;;;;3.33;3.33;;;;;16.76;89.78;100882.53;5096850;27;45939;-42
2023/04/28 02:48:53;;;;;;;;;2.33;2.33;;;;;16.78;90.70;100883.19;5097337;27;45300;-43
2023/04/28 02:51:19;;;;;;;;;4.00;2.00;;;;;16.77;90.82;100876.16;5097701;27;45274;-42
2023/04/28 02:53:45;;;;;;;;;2.00;2.00;;;;;16.81;90.03;100873.94;5097812;27;45235;-42
2023/04/28 02:56:10;;;;;;;;;3.25;2.00;;;;;16.81;89.46;100868.56;5097239;27;47167;-43
2023/04/28 02:58:36;;;;;;;;;2.75;1.00;;;;;16.81;89.32;100873.94;5097698;27;45302;-42
2023/04/28 03:01:01;;;;;;;;;2.00;1.25;;;;;16.82;88.87;100875.63;5097190;27;45749;-42
2023/04/28 03:03:26;;;;;;;;;2.00;2.00;;;;;16.83;88.57;100874.59;5097601;27;45467;-43
2023/04/28 03:05:52;;;;;;;;;3.00;3.00;;;;;16.79;89.33;100858.00;5097665;27;46098;-43
2023/04/28 03:08:17;;;;;;;;;4.33;3.00;;;;;16.83;89.37;100853.94;5097240;27;45291;-44
2023/04/28 03:10:43;;;;;;;;;2.00;0.67;;;;;16.85;89.60;100856.41;5097392;27;45222;-43
2023/04/28 03:13:08;;;;;;;;;2.00;2.00;;;;;16.85;89.32;100853.72;5097535;27;45382;-43
2023/04/28 03:15:34;;;;;;;;;2.33;2.33;;;;;16.87;88.91;100863.28;5096836;27;50197;-43
2023/04/28 03:17:59;;;;;;;;;5.00;3.00;;;;;16.88;88.96;100861.44;5097412;27;45415;-44
2023/04/28 03:20:24;;;;;;;;;3.00;1.00;;;;;16.90;88.87;100862.94;5097268;27;45437;-43
2023/04/28 03:22:50;;;;;;;;;1.00;1.00;;;;;16.89;88.83;100874.66;5097547;27;45452;-43
2023/04/28 03:25:15;;;;;;;;;2.00;2.00;;;;;16.84;89.57;100852.06;5097157;27;45371;-42
2023/04/28 03:27:40;;;;;;;;;1.00;1.00;;;;;16.92;89.30;100862.72;5097265;27;45351;-43
2023/04/28 03:30:06;;;;;;;;;1.50;1.50;;;;;16.92;89.13;100862.72;5097249;27;45417;-43
2023/04/28 03:32:32;;;;;;;;;1.00;1.00;;;;;16.92;88.76;100852.81;5097708;27;45283;-43
2023/04/28 03:34:57;;;;;;;;;2.75;1.00;;;;;16.91;88.66;100853.00;5097131;27;46222;-43
2023/04/28 03:37:22;;;;;;;;;2.50;1.00;;;;;16.91;88.61;100856.53;5097099;27;48288;-43
2023/04/28 03:39:47;;;;;;;;;1.00;1.00;;;;;16.91;88.37;100861.91;5097188;27;45324;-44
2023/04/28 03:42:13;;;;;;;;;1.00;1.00;;;;;16.85;88.68;100851.88;5097267;27;45599;-43
2023/04/28 03:44:38;;;;;;;;;1.00;1.00;;;;;16.90;87.28;100860.25;5096292;27;47043;-43
2023/04/28 03:47:04;;;;;;;;;2.00;1.00;;;;;16.89;87.78;100858.53;5096840;27;45330;-42
2023/04/28 03:49:29;;;;;;;;;2.00;1.00;;;;;16.88;88.46;100854.19;5097569;27;45543;-43
2023/04/28 03:51:55;;;;;;;;;1.00;1.00;;;;;16.88;88.67;100856.88;5100903;27;45345;-44
2023/04/28 03:54:20;;;;;;;;;1.50;1.50;;;;;16.87;88.48;100855.22;5100318;27;46949;-42
2023/04/28 03:56:45;;;;;;;;;1.00;1.00;;;;;16.87;89.03;100857.91;5099978;27;45466;-42
2023/04/28 03:59:11;;;;;;;;;1.50;0.50;;;;;16.86;88.40;100871.53;5099489;27;45279;-42
2023/04/28 04:01:37;;;;;;;;;0.75;0.75;;;;;16.85;88.71;100870.69;5100461;27;45440;-43
2023/04/28 04:04:03;;;;;;;;;1.25;1.25;;;;;16.84;88.46;100868.19;5100184;27;46821;-41
2023/04/28 04:06:28;;;;;;;;;4.00;1.00;;;;;16.84;88.43;100862.81;5100130;27;45380;-43
2023/04/28 04:08:54;;;;;;;;;0.00;0.00;;;;;16.83;88.10;100870.03;5100224;27;45428;-43
2023/04/28 04:11:19;;;;;;;;;0.00;0.00;;;;;16.80;88.24;100859.66;5100533;27;45287;-44
2023/04/28 04:13:45;;;;;;;;;0.00;0.00;;;;;16.81;88.05;100865.88;5100418;27;45523;-47
2023/04/28 04:16:10;;;;;;;;;0.00;0.00;;;;;16.76;88.31;100869.09;5100200;27;45448;-43
2023/04/28 04:18:35;;;;;;;;;0.00;0.00;;;;;16.77;88.03;100864.56;5100130;27;45440;-43
2023/04/28 04:21:01;;;;;;;;;0.00;0.00;;;;;16.79;87.91;100873.28;5100140;27;45426;-45
2023/04/28 04:23:27;;;;;;;;;0.00;0.00;;;;;16.78;87.27;100871.63;5100108;27;47080;-42
2023/04/28 04:25:52;;;;;;;;;0.00;0.00;;;;;16.78;87.90;100868.94;5099772;27;45373;-43
2023/04/28 04:28:17;;;;;;;;;0.00;0.00;;;;;16.76;88.30;100870.97;5099870;27;45246;-45
2023/04/28 04:30:43;;;;;;;;;1.75;1.75;;;;;16.76;87.92;100870.97;5099832;27;45545;-42
2023/04/28 04:33:09;;;;;;;;;0.00;0.00;;;;;16.67;88.28;100862.13;5099624;27;46828;-43
2023/04/28 04:35:34;;;;;;;;;3.33;3.33;;;;;16.75;88.02;100866.63;5099607;27;45360;-43
2023/04/28 04:38:00;;;;;;;;;1.33;1.00;;;;;16.75;87.79;100875.50;5081481;27;45356;-51
2023/04/28 04:40:26;;;;;;;;;0.25;0.00;;;;;16.76;87.96;100879.84;5099927;27;45459;-43
2023/04/28 04:42:51;;;;;;;;;0.25;0.25;;;;;16.78;88.24;100880.50;5099652;27;46314;-42
2023/04/28 04:45:16;;;;;;;;;4.00;1.00;;;;;16.79;88.14;100874.13;5098737;27;45525;-42
2023/04/28 04:47:42;;;;;;;;;0.50;0.50;;;;;16.80;87.91;100877.63;5099868;27;45775;-41
2023/04/28 04:50:08;;;;;;;;;2.00;0.00;;;;;16.76;87.92;100866.41;5099872;27;45435;-45
2023/04/28 04:52:33;;;;;;;;;1.75;1.75;;;;;16.82;88.31;100886.38;5099767;27;45322;-41
2023/04/28 04:54:59;;;;;;;;;2.00;1.00;;;;;16.80;88.05;100880.31;5099322;27;45288;-41
2023/04/28 04:57:24;;;;;;;;;0.00;0.00;;;;;16.82;87.74;100886.38;5099783;27;45401;-40
2023/04/28 04:59:50;;;;;;;;;0.25;0.25;;;;;16.81;87.50;100890.91;5100103;27;45321;-42
2023/04/28 05:02:15;;;;;;;;;0.50;0.50;;;;;16.84;87.78;100893.19;5098435;27;47309;-41
2023/04/28 05:04:40;;;;;;;;;13.33;11.00;;;;;16.84;88.13;100887.81;5099260;27;45469;-42
2023/04/28 05:07:06;;;;;;;;;4.00;3.00;;;;;16.85;88.13;100889.50;5099429;27;45312;-42
2023/04/28 05:09:32;;;;;;;;;1.00;1.00;;;;;16.86;87.25;100885.81;5099619;27;45351;-42
2023/04/28 05:11:57;;;;;;;;;1.00;1.00;;;;;16.88;87.36;100893.66;5099411;27;46898;-42
2023/04/28 05:14:22;;;;;;;;;0.75;0.75;;;;;16.86;86.90;100901.94;5099147;27;45373;-45
2023/04/28 05:16:48;;;;;;;;;1.50;1.00;;;;;16.86;87.10;100901.09;5099487;27;45345;-41
2023/04/28 05:19:13;;;;;;;;;2.00;0.50;;;;;16.79;87.50;100887.56;5099403;27;45478;-43
2023/04/28 05:21:39;;;;;;;;;0.00;0.00;;;;;16.88;87.12;100907.09;5099337;27;46221;-41
2023/04/28 05:24:04;;;;;;;;;0.00;0.00;;;;;16.87;87.07;100905.44;5099121;27;45217;-43
2023/04/28 05:26:30;;;;;;;;;0.00;0.00;;;;;16.86;86.97;100907.31;5099086;27;45306;-43
2023/04/28 05:28:55;;;;;;;;;0.00;0.00;;;;;16.88;87.04;100896.34;5099394;27;45462;-43
2023/04/28 05:31:20;;;;;;;;;3.00;1.00;;;;;16.90;86.88;100910.47;5098673;27;46252;-42
2023/04/28 05:33:46;;;;;;;;;0.25;0.25;;;;;16.91;87.29;100904.88;5098926;27;45253;-43
2023/04/28 05:36:12;;;;;;;;;0.00;0.00;;;;;16.83;86.88;100888.84;5099044;27;45436;-42
2023/04/28 05:38:37;;;;;;;;;1.50;1.00;;;;;16.95;86.60;100908.88;5099098;27;45357;-43
2023/04/28 05:41:03;;;;;;;;;1.50;1.00;;;;;16.95;86.42;100902.66;5098735;27;46139;-41
2023/04/28 05:43:28;;;;;;;;;1.75;1.75;;;;;16.94;86.99;100901.00;5098472;27;45316;-41
2023/04/28 05:45:53;;;;;;;;;2.00;2.00;;;;;16.96;87.08;100905.16;5098626;27;45291;-41
2023/04/28 05:48:19;;;;;;;;;2.00;2.00;;;;;16.98;86.60;100896.06;5099323;27;45348;-42
2023/04/28 05:50:44;;;;;;;;;1.00;1.00;;;;;16.89;86.59;100882.72;5098459;27;46264;-42
2023/04/28 05:53:10;;;;;;;;;1.00;1.00;;;;;17.01;86.66;100901.91;5098476;27;45389;-42
2023/04/28 05:55:35;;;;;;;;;1.50;1.50;;;;;17.02;86.81;100902.75;5098658;27;45428;-48
2023/04/28 05:58:02;;;;;;;;;0.50;0.50;;;;;17.10;85.25;100916.94;5098958;27;45404;-43
2023/04/28 06:00:27;;;;;;;;;2.75;1.00;;;;;17.12;85.69;100903.31;5098683;27;46965;-43
2023/04/28 06:02:52;;;;;;;;;5.75;1.00;;;;;17.15;85.29;100913.69;5098326;27;45311;-41
2023/04/28 06:05:18;;;;;;;;;1.00;1.00;;;;;17.15;85.36;100909.16;5098659;27;45703;-42
2023/04/28 06:07:43;;;;;;;;;1.25;1.25;;;;;17.16;85.63;100904.63;5098813;27;45373;-42
2023/04/28 06:10:09;;;;;;;;;1.25;1.25;;;;;17.18;85.30;100913.31;5098463;27;45418;-42
2023/04/28 06:12:35;;;;;;;;;1.25;1.25;;;;;17.18;85.65;100907.94;5097712;27;45137;-43
2023/04/28 06:15:00;;;;;;;;;1.00;1.00;;;;;17.21;85.15;100911.09;5097871;27;45314;-42
2023/04/28 06:17:26;;;;;;;;;1.00;1.00;;;;;17.23;85.21;100910.06;5098775;27;45363;-44
2023/04/28 06:19:53;;;;;;;;;3.50;1.00;;;;;17.20;84.98;100906.75;5098131;27;46286;-41
2023/04/28 06:22:19;;;;;;;;;1.25;1.25;;;;;17.20;84.92;100916.69;5098220;27;45223;-41
2023/04/28 06:24:44;;;;;;;;;2.00;1.00;;;;;17.19;85.26;100914.97;5098056;27;45427;-41
2023/04/28 06:27:10;;;;;;;;;0.50;0.50;;;;;17.09;85.18;100895.63;5098157;27;45455;-41
2023/04/28 06:29:36;;;;;;;;;2.00;2.00;;;;;17.16;84.76;100923.44;5098172;27;46428;-42
2023/04/28 06:32:01;;;;;;;;;1.00;1.00;;;;;17.13;85.05;100916.56;5097618;27;45429;-43
2023/04/28 06:34:27;;;;;;;;;3.25;1.25;;;;;17.14;85.26;100922.78;5096801;27;45317;-41
2023/04/28 06:36:54;;;;;;;;;2.25;1.50;;;;;17.16;84.94;100920.75;5098036;27;45477;-41
2023/04/28 06:39:20;;;;;;;;;2.00;1.25;;;;;17.22;84.69;100920.00;5097734;27;46500;-41
2023/04/28 06:41:46;;;;;;;;;2.00;2.00;;;;;17.27;84.81;100917.56;5097885;27;45492;-42
2023/04/28 06:44:12;;;;;;;;;1.00;1.00;;;;;17.32;84.68;100920.56;5097718;27;45251;-42
2023/04/28 06:46:37;;;;;;;;;3.00;1.00;;;;;17.33;84.76;100924.91;5097764;27;45463;-41
2023/04/28 06:49:03;;;;;;;;;2.00;2.00;;;;;17.37;84.04;100923.53;5097581;27;46108;-43
2023/04/28 06:51:31;;;;;;;;;2.25;2.25;;;;;17.40;84.39;100927.69;5097878;27;45259;-42
2023/04/28 06:53:56;;;;;;;;;2.25;2.25;;;;;17.44;83.77;100927.16;5096768;27;45390;-42
2023/04/28 06:56:22;;;;;;;;;3.25;1.50;;;;;17.48;83.81;100924.06;5098048;27;45445;-42
2023/04/28 06:58:47;;;;;;;;;3.75;2.00;;;;;17.51;83.36;100937.97;5097602;27;45420;-43
2023/04/28 07:01:12;;;;;;;;;1.75;1.75;;;;;17.54;82.80;100934.91;5097616;27;45402;-42
2023/04/28 07:03:38;;;;;;;;;1.00;1.00;;;;;17.57;83.02;100942.63;5097865;27;45337;-42
2023/04/28 07:06:04;;;;;;;;;1.00;1.00;;;;;17.65;82.46;100945.16;5097942;27;45303;-42
2023/04/28 07:08:29;;;;;;;;;2.00;2.00;;;;;17.76;82.24;100940.38;5097499;27;46028;-42
2023/04/28 07:10:55;;;;;;;;;3.00;2.50;;;;;17.84;82.20;100945.66;5082425;27;45507;-43
2023/04/28 07:13:20;;;;;;;;;2.00;2.00;;;;;17.93;82.11;100939.97;5095035;27;45467;-40
2023/04/28 07:15:46;;;;;;;;;1.75;1.25;;;;;18.02;81.74;100937.97;5097538;27;45218;-43
2023/04/28 07:18:11;;;;;;;;;3.25;2.00;;;;;18.08;81.54;100942.63;5096979;27;45966;-43
2023/04/28 07:20:36;;;;;;;;;3.75;2.50;;;;;18.14;80.74;100938.31;5078749;27;45524;-43
2023/04/28 07:23:02;;;;;;;;;1.75;1.75;;;;;18.17;80.83;100937.94;5097314;27;45365;-43
2023/04/28 07:25:27;;;;;;;;;6.50;2.75;;;;;18.11;79.94;100939.53;5099662;27;45388;-41
2023/04/28 07:27:53;;;;;;;;;3.00;2.00;;;;;18.12;80.69;100948.47;5100648;27;46091;-42
2023/04/28 07:30:18;;;;;;;;;2.50;2.00;;;;;18.14;80.42;100954.47;5100987;27;45318;-42
2023/04/28 07:32:43;;;;;;;;;3.00;1.75;;;;;18.14;80.12;100952.59;5100690;27;45464;-41
2023/04/28 07:35:09;;;;;;;;;2.00;2.00;;;;;18.11;79.49;100947.59;5101116;27;46066;-41
2023/04/28 07:37:36;;;;;;;;;3.00;1.50;;;;;18.14;79.86;100952.59;5100900;27;47121;-42
2023/04/28 07:40:01;;;;;;;;;3.00;3.00;;;;;18.17;79.89;100959.47;5100488;27;45432;-39
2023/04/28 07:42:27;;;;;;;;;4.00;3.00;;;;;18.18;79.56;100950.38;5100756;27;45897;-43
2023/04/28 07:44:52;;;;;;;;;3.00;3.00;;;;;18.18;79.91;100951.19;5100533;27;45539;-42
2023/04/28 07:47:17;;;;;;;;;2.00;1.75;;;;;18.26;79.88;100946.72;5100078;27;46278;-44
2023/04/28 07:49:43;;;;;;;;;3.00;1.25;;;;;18.42;79.17;100950.00;5100737;27;45308;-42
2023/04/28 07:52:08;;;;;;;;;1.75;1.75;;;;;18.58;78.74;100948.91;5100519;27;45396;-43
2023/04/28 07:54:34;;;;;;;;;1.00;1.00;;;;;18.30;78.17;100891.47;5100339;27;45338;-42
2023/04/28 07:57:00;;;;;;;;;1.00;1.00;;;;;18.99;76.92;100955.44;5100100;27;46107;-43
2023/04/28 07:59:25;;;;;;;;;1.00;1.00;;;;;19.29;75.46;100964.16;5100008;27;45300;-42
2023/04/28 08:01:51;;;;;;;;;2.25;2.25;;;;;19.42;74.85;100954.28;5099365;27;45523;-42
2023/04/28 08:04:16;;;;;;;;;2.00;2.00;;;;;19.56;74.35;100963.28;5097552;27;45387;-42
2023/04/28 08:06:42;;;;;;;;;4.00;3.00;;;;;19.54;74.09;100937.50;5096741;27;46965;-43
2023/04/28 08:09:07;;;;;;;;;3.50;1.75;;;;;19.62;73.14;100949.00;5096843;27;45866;-43
2023/04/28 08:11:33;;;;;;;;;1.00;1.00;;;;;19.78;72.02;100955.09;5096671;27;45470;-41
2023/04/28 08:14:01;;;;;;;;;1.50;1.50;;;;;19.95;71.73;100959.09;5096426;27;45889;-41
2023/04/28 08:16:28;;;;;;;;;2.00;2.00;;;;;20.05;71.35;100950.59;5096959;27;46998;-42
2023/04/28 08:18:53;;;;;;;;;1.60;1.60;;;;;20.06;71.60;100965.78;5095693;27;45976;-41
2023/04/28 08:21:19;;;;;;;;;4.00;1.00;;;;;20.15;70.89;100957.28;5096383;27;45439;-44
2023/04/28 08:23:45;;;;;;;;;2.25;1.00;;;;;20.32;70.19;100960.44;5097110;27;45433;-43
2023/04/28 08:26:10;;;;;;;;;2.40;1.00;;;;;20.63;69.52;100970.66;5096543;27;45555;-43
2023/04/28 08:28:36;;;;;;;;;2.00;2.00;;;;;21.34;68.15;100966.47;5096437;27;45444;-42
2023/04/28 08:31:01;;;;;;;;;0.00;0.00;;;;;21.63;65.70;100957.84;5096316;27;46197;-41
2023/04/28 08:33:27;;;;;;;;;0.00;0.00;;;;;21.35;66.22;100952.72;5096664;27;45518;-42
2023/04/28 08:35:54;;;;;;;;;3.00;1.75;;;;;21.24;66.32;100960.63;5095196;27;46978;-43
2023/04/28 08:38:21;;;;;;;;;0.80;0.80;;;;;21.00;66.31;100965.66;5096344;27;45576;-43
2023/04/28 08:40:46;;;;;;;;;2.00;2.00;;;;;20.83;66.91;100959.03;5095696;27;45480;-43
2023/04/28 08:43:13;;;;;;;;;2.00;2.00;;;;;20.76;67.09;100955.47;5096233;27;45586;-43
2023/04/28 08:45:44;;;;;;;;;1.00;1.00;;;;;20.64;67.45;100953.41;5095756;27;47257;-43
2023/04/28 08:48:19;;;;;;;;;1.00;1.00;;;;;20.55;67.71;100968.16;5095952;27;46272;-47
2023/04/28 08:50:53;;;;;;;;;1.00;1.00;;;;;20.57;67.77;100966.09;5095473;27;45455;-44
2023/04/28 08:53:24;;;;;;;;;1.00;1.00;;;;;20.54;67.54;100971.06;5077592;27;45471;-43
2023/04/28 08:55:59;;;;;;;;;2.00;2.00;;;;;20.49;67.76;100979.81;5092325;27;46496;-43
2023/04/28 08:58:26;;;;;;;;;0.40;0.40;;;;;20.54;67.15;100971.91;5095802;27;45576;-48
2023/04/28 09:00:52;;;;;;;;;1.00;1.00;;;;;20.55;67.40;100976.28;5096214;27;45459;-45
2023/04/28 09:03:18;;;;;;;;;0.75;0.75;;;;;20.46;67.22;100968.53;5095979;27;45512;-44
2023/04/28 09:05:43;;;;;;;;;1.00;1.00;;;;;20.44;66.96;100983.09;5095444;27;45973;-44
2023/04/28 09:08:10;;;;;;;;;3.00;2.00;;;;;20.42;67.11;100978.94;5095973;27;45438;-45
2023/04/28 09:10:36;;;;;;;;;4.25;4.00;;;;;20.39;67.12;100971.22;5095707;27;45479;-44
2023/04/28 09:13:02;;;;;;;;;1.00;1.00;;;;;20.33;67.23;100977.47;5096157;27;45658;-46
2023/04/28 09:15:36;;;;;;;;;3.00;2.00;;;;;20.30;67.01;100981.41;5095210;27;45384;-45
2023/04/28 09:18:05;;;;;;;;;2.00;1.00;;;;;20.32;67.31;100976.63;5095191;27;45555;-43
2023/04/28 09:20:32;;;;;;;;;1.40;1.40;;;;;20.31;67.58;100979.53;5095108;27;45517;-45
2023/04/28 09:23:18;;;;;;;;;1.50;1.50;;;;;20.25;68.11;100977.66;5096155;27;45357;-43
2023/04/28 09:26:06;;;;;;;;;1.40;1.40;;;;;20.22;67.53;100976.19;5095254;27;46351;-45
2023/04/28 09:28:33;;;;;;;;;1.00;1.00;;;;;20.19;67.90;100985.53;5095681;27;45549;-45
2023/04/28 09:30:59;;;;;;;;;1.00;1.00;;;;;20.03;67.89;100971.56;5095864;27;45566;-45
2023/04/28 09:33:24;;;;;;;;;1.75;1.75;;;;;19.99;68.24;100984.66;5095563;27;45462;-45
2023/04/28 09:35:50;;;;;;;;;2.00;2.00;;;;;19.89;67.88;100976.09;5095052;27;45578;-45
2023/04/28 09:38:17;;;;;;;;;3.00;2.75;;;;;19.83;69.18;100979.59;5092917;27;46251;-46
2023/04/28 09:41:01;;;;;;;;;1.40;1.40;;;;;19.90;68.07;100980.47;5095582;27;45395;-42
2023/04/28 09:43:32;;;;;;;;;3.00;1.25;;;;;19.93;68.33;100991.69;5095510;27;45493;-44
2023/04/28 09:46:00;;;;;;;;;2.80;1.00;;;;;19.96;67.95;100987.75;5094661;27;46173;-43
2023/04/28 09:48:36;;;;;;;;;1.80;1.80;;;;;19.93;67.83;100991.69;5093036;27;45542;-45
2023/04/28 09:51:04;;;;;;;;;3.40;2.00;;;;;19.81;67.42;100969.00;5095319;27;45547;-43
2023/04/28 09:53:32;;;;;;;;;1.75;1.50;;;;;19.92;67.74;100986.47;5095124;27;45484;-47
2023/04/28 09:55:59;;;;;;;;;1.80;1.20;;;;;19.97;67.15;100991.28;5093899;27;45472;-43
2023/04/28 09:58:27;;;;;;;;;4.50;4.50;;;;;20.03;66.98;100994.00;5094558;27;45492;-43
2023/04/28 10:00:54;;;;;;;;;11.25;7.25;;;;;20.05;66.40;100999.19;5095018;27;45423;-45
2023/04/28 10:03:24;;;;;;;;;6.50;6.50;;;;;20.16;66.11;101006.72;5095221;27;46411;-45
2023/04/28 10:05:51;;;;;;;;;1.00;1.00;;;;;20.32;66.60;101006.34;5094503;27;45392;-46
2023/04/28 10:08:18;;;;;;;;;1.00;1.00;;;;;20.51;65.38;100991.22;5094687;27;45452;-41
2023/04/28 10:10:45;;;;;;;;;1.00;1.00;;;;;20.68;64.45;101000.59;5094853;27;45564;-45
2023/04/28 10:13:11;;;;;;;;;1.25;1.00;;;;;20.82;64.45;100990.66;5094878;27;45491;-45
2023/04/28 10:15:39;;;;;;;;;2.00;2.00;;;;;20.92;63.87;101001.03;5094478;27;46512;-44
2023/04/28 10:18:06;;;;;;;;;1.20;1.00;;;;;21.03;63.25;101003.13;5094705;27;45483;-44
2023/04/28 10:20:35;;;;;;;;;4.75;4.25;;;;;21.24;63.05;100996.66;5094496;27;45552;-44
2023/04/28 10:23:46;;;;;;;;;40.33;33.33;;;;;21.45;62.71;100989.31;5094249;27;45482;-45
2023/04/28 10:26:14;;;;;;;;;81.33;67.00;;;;;21.49;62.48;101001.38;5097732;27;46198;-44
2023/04/28 10:28:50;;;;;;;;;45.00;33.67;;;;;21.57;61.15;100993.03;5097747;27;45455;-43
2023/04/28 10:31:20;;;;;;;;;47.67;35.67;;;;;21.71;60.77;100993.84;5098264;27;45362;-45
2023/04/28 10:33:46;;;;;;;;;39.33;31.00;;;;;21.94;59.87;100986.03;5097605;27;45229;-42
2023/04/28 10:36:47;;;;;;;;;48.00;34.00;;;;;22.10;60.51;100993.66;5097682;27;47188;-45
2023/04/28 10:39:13;;;;;;;;;20.00;16.00;;;;;22.06;58.39;100987.00;5096473;27;45294;-46
2023/04/28 10:41:38;;;;;;;;;6.25;5.25;;;;;22.02;57.73;100996.63;5098076;27;45282;-45
2023/04/28 10:44:34;;;;;;;;;4.00;4.00;;;;;21.92;58.85;100994.38;5097876;27;45412;-45
2023/04/28 10:47:09;;;;;;;;;3.00;3.00;;;;;21.79;58.71;100999.84;5097669;27;45451;-44
2023/04/28 10:49:53;;;;;;;;;12.60;8.60;;;;;21.80;58.58;100998.81;5097590;27;45335;-46
2023/04/28 10:52:37;;;;;;;;;12.80;12.80;;;;;21.97;58.84;101004.56;5097665;27;45315;-45
2023/04/28 10:55:29;;;;;;;;;26.25;18.75;;;;;22.12;58.29;101004.25;5097709;27;45271;-45
2023/04/28 10:58:13;;;;;;;;;17.25;13.25;;;;;22.14;58.14;100999.50;5097419;27;46110;-42
2023/04/28 11:00:39;;;;;;;;;2.40;1.00;;;;;22.14;57.12;100992.22;5097042;27;45174;-43
2023/04/28 11:03:05;;;;;;;;;3.50;2.00;;;;;22.16;57.26;100990.13;5097816;27;45336;-42
2023/04/28 11:05:33;;;;;;;;;2.80;2.60;;;;;22.22;57.34;100993.84;5097348;27;45547;-44
2023/04/28 11:08:17;;;;;;;;;5.80;3.60;;;;;22.12;58.14;100993.44;5097018;27;46380;-45
2023/04/28 11:11:23;;;;;;;;;3.00;2.20;;;;;22.07;58.65;100999.50;5097029;27;45380;-43
2023/04/28 11:13:49;;;;;;;;;5.20;3.80;;;;;22.63;57.62;101003.38;5097012;27;45505;-44
2023/04/28 11:16:19;;;;;;;;;3.80;2.40;;;;;23.75;55.70;100985.19;5097315;27;45313;-44
2023/04/28 11:18:53;;;;;;;;;6.00;3.00;;;;;25.23;51.47;100993.66;5097209;27;45982;-45
2023/04/28 11:21:20;;;;;;;;;6.40;5.00;;;;;26.48;49.90;100990.25;5096689;27;45365;-44
2023/04/28 11:23:47;;;;;;;;;3.20;1.60;;;;;28.82;46.27;100984.25;5097217;27;45469;-45